Flight Track Log - Related Links

Times and Time Zones

All times are in EDT time to prevent confusion due to time zone crossing. See the SKW4444 flight status page for this flight to view local times or setup timezone preferences in your user account.

Time Position Orientation Groundspeed Altitude Reporting Facility
EDT Latitude Longitude Course Direction KTS MPH feet Rate Location/Type
Tue 10:13:13 PM 40.8142 -111.9625 159° South 190 219 5,200  Level Salt Center
Tue 10:13:44 PM 40.8408 -111.9678 351° North 200 230 5,900 2,400 Climbing Salt Center
Tue 10:14:48 PM 40.9100 -111.9767 354° North 224 258 9,000 2,667 Climbing Salt Center
Tue 10:15:50 PM 40.9517 -111.9306 40° Northeast 244 281 11,500 1,707 Climbing Salt Center
Tue 10:16:00 PM 41.1239 -111.7956 108° East  Level FlightAware
Tue 10:16:51 PM 40.9256 -111.8408 111° Southeast 279 321 12,500  Level Salt Center
Tue 10:17:00 PM 41.0294 -111.7146 159° South  Level FlightAware
Tue 10:17:53 PM 40.8911 -111.7264 112° Southeast 343 395 13,900  Level Salt Center
Tue 10:18:00 PM 40.9182 -111.6590 159° South  Level FlightAware
Tue 10:18:54 PM 40.8531 -111.6014 112° Southeast 369 425 15,800  Level Salt Center
Tue 10:19:57 PM 40.8133 -111.4694 112° Southeast 387 445 17,800 1,805 Climbing Salt Center
Tue 10:20:57 PM 40.7711 -111.3033 109° East 401 461 19,500 1,574 Climbing Salt Center
Tue 10:21:59 PM 40.7375 -111.1553 107° East 417 480 21,000 1,463 Climbing Salt Center
Tue 10:23:00 PM 40.7019 -111.0008 107° East 435 501 22,500 1,415 Climbing Salt Center
Tue 10:24:02 PM 40.6656 -110.8419 107° East 451 519 23,900 1,268 Climbing Salt Center
Tue 10:25:03 PM 40.6275 -110.6800 107° East 464 534 25,100 1,220 Climbing Salt Center
Tue 10:26:05 PM 40.5867 -110.5036 107° East 478 550 26,400 1,210 Climbing Salt Center
Tue 10:27:07 PM 40.5467 -110.3333 107° East 486 559 27,600 1,171 Climbing Salt Center
Tue 10:28:08 PM 40.5078 -110.1375 105° East 494 568 28,800 1,024 Climbing Salt Center
Tue 10:29:10 PM 40.4758 -109.9669 104° East 501 577 29,700 878 Climbing Salt Center
Tue 10:30:11 PM 40.4422 -109.7939 104° East 509 586 30,600 732 Climbing Salt Center
Tue 10:31:13 PM 40.4028 -109.5864 104° East 522 601 31,200 581 Climbing Salt Center
Tue 10:32:15 PM 40.3664 -109.4053 105° East 533 613 31,800 634 Climbing Salt Center
Tue 10:33:16 PM 40.3247 -109.1900 104° East 542 624 32,500 780 Climbing Salt Center
Tue 10:34:18 PM 40.2878 -109.0044 105° East 547 629 33,400 1,113 Climbing Salt Center
Tue 10:35:20 PM 40.2517 -108.8231 105° East 538 619 34,800 1,512 Climbing Salt Center
Tue 10:36:21 PM 40.2103 -108.6169 105° East 524 603 36,500 1,073 Climbing Salt Center
Tue 10:37:23 PM 40.1764 -108.4481 105° East 506 582 37,000 229 Climbing Salt Center
Tue 10:38:32 PM 40.1336 -108.2419 105° East 514 592 37,000  Level Denver Center
Tue 10:39:33 PM 40.0903 -108.0350 105° East 525 604 37,000  Level Denver Center
Tue 10:40:34 PM 40.0433 -107.8597 109° East 533 613 37,000  Level Denver Center
Tue 10:41:36 PM 39.9769 -107.6939 118° Southeast 536 617 37,000  Level Denver Center
Tue 10:42:37 PM 39.9000 -107.5019 118° Southeast 535 616 37,000  Level Denver Center
Tue 10:43:38 PM 39.8333 -107.3364 118° Southeast 537 618 37,000  Level Denver Center
Tue 10:44:40 PM 39.7578 -107.1494 118° Southeast 536 617 37,000  Level Denver Center
Tue 10:45:41 PM 39.6869 -106.9756 118° Southeast 537 618 37,000  Level Denver Center
Tue 10:46:42 PM 39.6203 -106.8164 118° Southeast 538 619 37,000  Level Denver Center
Tue 10:47:43 PM 39.5464 -106.6269 117° Southeast 530 610 37,000  Level Denver Center
Tue 10:48:45 PM 39.4753 -106.4547 118° Southeast 534 615 37,000  Level Denver Center
Tue 10:49:46 PM 39.4119 -106.3008 118° Southeast 535 616 37,000  Level Denver Center
Tue 10:50:47 PM 39.3331 -106.1169 119° Southeast 533 613 37,000 49 Level Denver Center
Tue 10:51:48 PM 39.2644 -105.9481 118° Southeast 529 609 37,100  Climbing Denver Center
Tue 10:52:49 PM 39.1928 -105.7819 119° Southeast 528 608 37,000 -49 Descending Denver Center
Tue 10:53:50 PM 39.1231 -105.6139 118° Southeast 529 609 37,000  Level Denver Center
Tue 10:54:52 PM 39.0519 -105.4458 119° Southeast 532 612 37,000  Level Denver Center
Tue 10:55:53 PM 38.9803 -105.2789 119° Southeast 530 610 37,000  Level Denver Center
Tue 10:56:54 PM 38.9081 -105.1114 119° Southeast 533 613 37,000 49 Level Denver Center
Tue 10:57:55 PM 38.8358 -104.9433 119° Southeast 535 616 37,100  Climbing Denver Center
Tue 10:58:56 PM 38.7514 -104.7492 119° Southeast 531 611 37,000  Descending Denver Center
Tue 10:59:57 PM 38.6797 -104.5825 119° Southeast 529 609 37,100  Climbing Denver Center
Tue 11:00:58 PM 38.6064 -104.4147 119° Southeast 535 616 37,000 -49 Descending Denver Center
Tue 11:01:59 PM 38.5314 -104.2478 120° Southeast 536 617 37,000  Level Denver Center
Tue 11:03:01 PM 38.4611 -104.0908 120° Southeast 539 620 37,000  Level Denver Center
Tue 11:04:02 PM 38.3769 -103.9047 120° Southeast 541 623 37,000 49 Level Denver Center
Tue 11:05:03 PM 38.3050 -103.7425 119° Southeast 546 628 37,100  Climbing Denver Center
Tue 11:06:04 PM 38.2331 -103.5819 120° Southeast 544 626 37,000 -49 Descending Denver Center
Tue 11:07:05 PM 38.1475 -103.3950 120° Southeast 546 628 37,000  Level Denver Center
Tue 11:08:06 PM 38.0750 -103.2347 120° Southeast 545 627 37,000  Level Denver Center
Tue 11:09:07 PM 38.0028 -103.0767 120° Southeast 540 621 37,000  Level Denver Center
Tue 11:10:08 PM 37.9186 -102.8942 120° Southeast 535 616 37,000  Level Denver Center
Tue 11:11:09 PM 37.8472 -102.7400 120° Southeast 530 610 37,000  Level Denver Center
Tue 11:12:10 PM 37.7750 -102.5853 121° Southeast 530 610 37,000 49 Level Denver Center
Tue 11:13:11 PM 37.6978 -102.4219 121° Southeast 527 606 37,100  Climbing Denver Center
Tue 11:14:13 PM 37.6147 -102.2444 121° Southeast 527 606 37,000 -49 Descending Denver Center
Tue 11:15:14 PM 37.5417 -102.0964 122° Southeast 522 601 37,000  Level Denver Center
Tue 11:16:15 PM 37.4686 -101.9483 122° Southeast 520 598 37,000  Level Denver Center
Tue 11:17:04 PM 37.4064 -101.8267 123° Southeast 520 598 37,000  Level Kansas Center
Tue 11:18:05 PM 37.3206 -101.6553 122° Southeast 520 598 37,000  Level Kansas Center
Tue 11:19:08 PM 37.2475 -101.5083 122° Southeast 521 600 37,000  Level Kansas Center
Tue 11:20:09 PM 37.1622 -101.3383 122° Southeast 520 598 37,000  Level Kansas Center
Tue 11:21:10 PM 37.0875 -101.1936 123° Southeast 520 598 37,000  Level Kansas Center
Tue 11:22:11 PM 37.0150 -101.0486 122° Southeast 518 596 37,000  Level Kansas Center
Tue 11:23:12 PM 36.9286 -100.8811 123° Southeast 517 595 37,000  Level Kansas Center
Tue 11:24:11 PM 36.8542 -100.7353 123° Southeast 520 598 37,000  Level Kansas Center
Tue 11:25:12 PM 36.7683 -100.5661 122° Southeast 520 598 37,000  Level Kansas Center
Tue 11:26:15 PM 36.6917 -100.4222 124° Southeast 521 600 37,000  Level Kansas Center
Tue 11:27:16 PM 36.6192 -100.2822 123° Southeast 523 602 37,000  Level Kansas Center
Tue 11:28:17 PM 36.5406 -100.1292 123° Southeast 524 603 37,000  Level Kansas Center
Tue 11:29:18 PM 36.4642 -99.9803 123° Southeast 514 592 37,000  Level Kansas Center
Tue 11:30:19 PM 36.3692 -99.8058 124° Southeast 508 585 37,000  Level Kansas Center
Tue 11:31:19 PM 36.2911 -99.6583 123° Southeast 510 587 37,000  Level Kansas Center
Tue 11:32:21 PM 36.2125 -99.5100 123° Southeast 512 589 37,000 -298 Level Kansas Center
Tue 11:33:20 PM 36.1381 -99.3711 124° Southeast 515 593 36,400 -1,659 Descending Kansas Center
Tue 11:34:24 PM 36.0608 -99.2219 123° Southeast 515 593 33,600 -3,072 Descending Kansas Center
Tue 11:35:25 PM 35.9956 -99.0656 117° Southeast 514 592 30,000 -3,393 Descending Kansas Center
Tue 11:36:26 PM 35.9297 -98.9086 117° Southeast 516 594 26,700 -3,344 Descending Kansas Center
Tue 11:37:27 PM 35.8656 -98.7606 118° Southeast 499 574 23,200 -3,708 Descending Kansas Center
Tue 11:37:55 PM 35.8314 -98.6833 119° Southeast 492 566 21,200 -3,614 Descending Fort Center
Tue 11:38:55 PM 35.7703 -98.5442 118° Southeast 471 542 17,900 -3,470 Descending Fort Center
Tue 11:39:18 PM 35.7436 -98.4875 120° Southeast 444 511 16,400 -3,623 Descending Fort Center
Tue 11:39:48 PM 35.7128 -98.4181 119° Southeast 431 496 14,700 -3,099 Descending Fort Center
Tue 11:40:49 PM 35.6594 -98.2975 119° Southeast 397 457 11,700 -2,380 Descending Fort Center
Tue 11:41:49 PM 35.6081 -98.1819 119° Southeast 376 433 9,900 -1,537 Descending Fort Center
Tue 11:42:50 PM 35.5669 -98.0847 117° Southeast 317 365 8,600 -1,140 Descending Fort Center
Tue 11:43:50 PM 35.5258 -97.9950 119° Southeast 290 334 7,600 -942 Descending Fort Center
Tue 11:44:51 PM 35.4781 -97.9131 126° Southeast 299 344 6,700 -1,230 Descending Fort Center
Tue 11:45:52 PM 35.4264 -97.8289 127° Southeast 288 331 5,100 -1,339 Descending Fort Center
Tue 11:46:52 PM 35.3850 -97.7572 125° Southeast 262 302 4,000 -645 Descending Fort Center
Tue 11:47:53 PM 35.3475 -97.6986 128° Southeast 189 217 3,800 -439 Descending Fort Center
Tue 11:48:55 PM 35.3247 -97.6528 121° Southeast 208 239 3,100 -677 Descending Fort Center

Login

Don't have an account? Register now (free) for customized features, flight alerts, and more!